Time;durP1;ratioP1;P1;durP2;ratioP2;P2;SDS_P1;SDS_P2;PMS_P1;PMS_P2;Temp;Humidity;BMP_temperature;BMP_pressure;BME280_temperature;BME280_humidity;BME280_pressure;Samples;Min_cycle;Max_cycle;Signal;HPM_P1;HPM_P2
2021/09/28 00:05:16;;;;;;;;;;;;;;;18.95;56.51;101122.00;4996320;28;1563;-53
2021/09/28 00:07:42;;;;;;;;;;;;;;;19.27;57.92;101120.75;4996755;28;1031;-52
2021/09/28 00:10:07;;;;;;;;;;;;;;;19.47;59.13;101130.84;4996974;28;1970;-53
2021/09/28 00:12:33;;;;;;;;;;;;;;;19.98;58.90;101140.75;4996513;28;1552;-54
2021/09/28 00:14:58;;;;;;;;;;;;;;;19.91;59.59;101143.00;4996643;28;1358;-55
2021/09/28 00:17:24;;;;;;;;;;;;;;;19.60;59.58;101152.28;4996393;28;1593;-55
2021/09/28 00:19:49;;;;;;;;;;;;;;;19.37;59.05;101148.28;4996763;28;1199;-56
2021/09/28 00:22:15;;;;;;;;;;;;;;;19.25;57.66;101148.63;4995949;28;1397;-53
2021/09/28 00:24:40;;;;;;;;;;;;;;;19.05;57.01;101145.94;4996529;28;1243;-54
2021/09/28 00:27:05;;;;;;;;;;;;;;;19.01;55.83;101150.34;4996486;28;1445;-53
2021/09/28 00:29:31;;;;;;;;;;;;;;;18.84;55.63;101156.97;4996428;28;1913;-54
2021/09/28 00:31:56;;;;;;;;;;;;;;;18.89;54.80;101161.72;4996378;28;1461;-55
2021/09/28 00:34:22;;;;;;;;;;;;;;;18.87;54.33;101163.88;4995746;28;879;-54
2021/09/28 00:36:47;;;;;;;;;;;;;;;18.80;55.08;101155.88;5001877;28;1088;-54
2021/09/28 00:39:13;;;;;;;;;;;;;;;19.15;56.63;101157.75;5016095;28;883;-54
2021/09/28 00:41:38;;;;;;;;;;;;;;;19.42;58.04;101166.72;5015869;28;761;-55
2021/09/28 00:44:04;;;;;;;;;;;;;;;19.66;58.65;101173.22;5016359;28;808;-54
2021/09/28 00:46:29;;;;;;;;;;;;;;;19.70;59.76;101179.00;5015985;28;876;-52
2021/09/28 00:48:54;;;;;;;;;;;;;;;19.84;60.00;101173.69;5016150;28;1906;-53
2021/09/28 00:51:20;;;;;;;;;;;;;;;19.97;60.34;101175.00;5016356;28;1074;-52
2021/09/28 00:53:46;;;;;;;;;;;;;;;20.17;60.22;101168.47;5015627;28;764;-51
2021/09/28 00:56:13;;;;;;;;;;;;;;;20.33;60.01;101180.25;4998354;28;872;-52
2021/09/28 00:58:39;;;;;;;;;;;;;;;20.19;60.92;101180.06;5016478;28;795;-49
2021/09/28 01:01:05;;;;;;;;;;;;;;;20.49;60.22;101178.97;4998942;28;834;-52
2021/09/28 01:03:33;;;;;;;;;;;;;;;20.45;60.82;101172.38;5015811;28;745;-54
2021/09/28 01:05:59;;;;;;;;;;;;;;;20.58;60.61;101172.81;5016210;28;832;-50
2021/09/28 01:08:25;;;;;;;;;;;;;;;20.46;60.25;101174.03;5015135;28;1979;-54
2021/09/28 01:10:50;;;;;;;;;;;;;;;19.96;58.50;101171.41;5015944;28;752;-54
2021/09/28 01:13:15;;;;;;;;;;;;;;;19.47;56.61;101174.97;5015200;28;1018;-55
2021/09/28 01:16:07;;;;;;;;;;;;;;;19.03;54.76;101170.19;5015906;28;816;-54
2021/09/28 01:18:33;;;;;;;;;;;;;;;18.78;51.86;101180.97;5012767;28;1370;-54
2021/09/28 01:20:59;;;;;;;;;;;;;;;18.45;50.31;101172.22;5015476;28;769;-54
2021/09/28 01:23:24;;;;;;;;;;;;;;;18.39;49.95;101167.78;5015136;28;1143;-53
2021/09/28 01:25:50;;;;;;;;;;;;;;;18.70;52.85;101175.22;5015387;28;737;-54
2021/09/28 01:28:15;;;;;;;;;;;;;;;18.88;55.91;101171.06;5015767;28;792;-55
2021/09/28 01:30:41;;;;;;;;;;;;;;;19.19;57.47;101169.03;5015450;28;1906;-53
2021/09/28 01:33:06;;;;;;;;;;;;;;;19.27;59.32;101164.88;5015225;28;753;-54
2021/09/28 01:35:32;;;;;;;;;;;;;;;19.55;60.04;101176.31;5015279;28;809;-55
2021/09/28 01:37:57;;;;;;;;;;;;;;;19.78;60.27;101172.88;5014921;28;1144;-55
2021/09/28 01:40:23;;;;;;;;;;;;;;;20.04;60.38;101174.66;5015447;28;781;-53
2021/09/28 01:42:48;;;;;;;;;;;;;;;20.10;60.83;101171.56;5015607;28;764;-53
2021/09/28 01:45:14;;;;;;;;;;;;;;;20.12;61.26;101174.88;5015781;28;1130;-52
2021/09/28 01:47:39;;;;;;;;;;;;;;;20.27;61.19;101181.38;5014802;28;759;-51
2021/09/28 01:50:05;;;;;;;;;;;;;;;20.52;60.70;101177.56;5014991;28;1902;-54
2021/09/28 01:52:32;;;;;;;;;;;;;;;20.52;60.96;101178.41;5014862;28;1180;-53
2021/09/28 01:54:58;;;;;;;;;;;;;;;20.63;60.78;101181.06;5014958;28;824;-52
2021/09/28 01:57:23;;;;;;;;;;;;;;;20.66;60.51;101177.72;5015184;28;779;-54
2021/09/28 01:59:49;;;;;;;;;;;;;;;20.11;60.60;101178.75;5015114;28;824;-52
2021/09/28 02:02:14;;;;;;;;;;;;;;;19.66;57.42;101180.69;5015224;28;753;-53
2021/09/28 02:04:39;;;;;;;;;;;;;;;19.18;53.94;101177.59;5014880;28;1363;-54
2021/09/28 02:07:05;;;;;;;;;;;;;;;18.85;50.89;101179.88;5014849;28;1051;-52
2021/09/28 02:09:30;;;;;;;;;;;;;;;18.32;48.99;101171.94;5015128;28;1906;-54
2021/09/28 02:11:56;;;;;;;;;;;;;;;18.11;49.17;101178.25;5014716;28;753;-53
2021/09/28 02:14:26;;;;;;;;;;;;;;;18.52;53.44;101182.13;5014611;28;1035;-54
2021/09/28 02:16:51;;;;;;;;;;;;;;;18.84;55.88;101179.03;5014908;28;852;-55
2021/09/28 02:19:16;;;;;;;;;;;;;;;19.15;57.78;101178.97;5014766;28;924;-51
2021/09/28 02:21:42;;;;;;;;;;;;;;;19.41;58.73;101178.88;5014478;28;1055;-55
2021/09/28 02:24:07;;;;;;;;;;;;;;;19.58;59.89;101178.50;5014923;28;856;-55
2021/09/28 02:26:33;;;;;;;;;;;;;;;19.79;60.13;101185.56;5019083;28;736;-55
2021/09/28 02:28:58;;;;;;;;;;;;;;;19.97;60.30;101186.03;5019009;28;1942;-54
2021/09/28 02:31:24;;;;;;;;;;;;;;;20.18;60.15;101178.41;5018962;28;801;-55
2021/09/28 02:33:49;;;;;;;;;;;;;;;20.20;60.45;101178.13;5018511;28;744;-53
2021/09/28 02:36:14;;;;;;;;;;;;;;;20.37;60.39;101186.00;5018522;28;1097;-52
2021/09/28 02:38:40;;;;;;;;;;;;;;;20.34;60.82;101181.88;5018224;28;1001;-55
2021/09/28 02:41:05;;;;;;;;;;;;;;;20.43;60.88;101180.13;5018460;28;816;-53
2021/09/28 02:43:31;;;;;;;;;;;;;;;20.51;60.57;101185.03;5018603;28;855;-53
2021/09/28 02:45:56;;;;;;;;;;;;;;;20.45;61.32;101175.13;5018492;28;895;-55
2021/09/28 02:48:22;;;;;;;;;;;;;;;20.51;60.88;101182.28;5018294;28;1910;-54
2021/09/28 02:50:47;;;;;;;;;;;;;;;20.17;59.45;101177.59;5018611;28;880;-53
2021/09/28 02:53:12;;;;;;;;;;;;;;;19.62;57.11;101188.69;5013921;28;2515;-55
2021/09/28 02:55:38;;;;;;;;;;;;;;;19.12;54.21;101190.56;4997597;28;1356;-53
2021/09/28 02:58:04;;;;;;;;;;;;;;;18.50;51.74;101184.34;4998458;28;1395;-56
2021/09/28 03:00:29;;;;;;;;;;;;;;;18.21;49.87;101182.94;4998707;28;1441;-58
2021/09/28 03:02:54;;;;;;;;;;;;;;;18.02;49.61;101184.56;4997495;28;1612;-54
2021/09/28 03:05:20;;;;;;;;;;;;;;;18.54;53.04;101185.44;4997718;28;1568;-52
2021/09/28 03:07:45;;;;;;;;;;;;;;;18.80;55.90;101187.03;4999690;28;855;-54
2021/09/28 03:10:11;;;;;;;;;;;;;;;19.08;57.60;101190.31;4997495;28;1911;-52
2021/09/28 03:12:36;;;;;;;;;;;;;;;19.32;58.95;101193.25;4998346;28;1517;-51
2021/09/28 03:15:02;;;;;;;;;;;;;;;19.54;59.74;101191.22;4997504;28;1160;-56
2021/09/28 03:17:27;;;;;;;;;;;;;;;19.71;60.29;101190.84;4997263;28;1440;-55
2021/09/28 03:19:53;;;;;;;;;;;;;;;19.79;60.91;101188.34;4998316;28;1469;-54
2021/09/28 03:22:18;;;;;;;;;;;;;;;20.02;60.81;101197.03;4997501;28;1501;-54
2021/09/28 03:24:43;;;;;;;;;;;;;;;20.27;60.31;101186.91;4997655;28;1608;-55
2021/09/28 03:27:09;;;;;;;;;;;;;;;20.25;61.18;101186.38;4997608;28;1376;-58
2021/09/28 03:29:34;;;;;;;;;;;;;;;20.32;60.98;101192.38;4997284;28;1902;-58
2021/09/28 03:32:00;;;;;;;;;;;;;;;20.32;61.43;101195.97;4997890;28;1205;-58
2021/09/28 03:34:26;;;;;;;;;;;;;;;20.49;60.87;101195.53;4997641;28;1343;-58
2021/09/28 03:36:51;;;;;;;;;;;;;;;20.58;60.87;101195.75;4996858;28;1275;-58
2021/09/28 03:39:17;;;;;;;;;;;;;;;20.32;60.72;101193.19;4997355;28;1497;-58
2021/09/28 03:41:42;;;;;;;;;;;;;;;19.99;57.96;101198.44;4997254;28;1519;-58
2021/09/28 03:44:08;;;;;;;;;;;;;;;19.46;56.08;101210.00;4997419;28;1449;-58
2021/09/28 03:46:33;;;;;;;;;;;;;;;19.05;53.16;101217.59;4997100;28;1487;-59
2021/09/28 03:48:58;;;;;;;;;;;;;;;18.54;50.87;101207.47;4997160;28;1910;-55
2021/09/28 03:51:24;;;;;;;;;;;;;;;18.33;49.48;101207.47;4997369;28;1341;-57
2021/09/28 03:53:51;;;;;;;;;;;;;;;18.40;50.35;101213.50;5000990;28;1568;-61
2021/09/28 03:56:20;;;;;;;;;;;;;;;18.70;53.89;101211.03;4996919;28;1546;-58
2021/09/28 03:58:45;;;;;;;;;;;;;;;18.93;56.51;101209.66;4997440;28;1471;-58
2021/09/28 04:01:11;;;;;;;;;;;;;;;19.27;57.90;101204.28;4996886;28;1730;-57
2021/09/28 04:03:36;;;;;;;;;;;;;;;19.36;59.54;101206.47;4992014;28;1087;-57
2021/09/28 04:06:01;;;;;;;;;;;;;;;19.58;60.07;101204.16;4979696;28;1532;-59
2021/09/28 04:08:27;;;;;;;;;;;;;;;19.77;60.36;101204.34;4997578;28;1968;-58
2021/09/28 04:10:52;;;;;;;;;;;;;;;20.08;60.09;101212.44;4996948;28;1282;-59
2021/09/28 04:13:18;;;;;;;;;;;;;;;20.13;60.48;101215.19;4996616;28;1519;-58
2021/09/28 04:15:44;;;;;;;;;;;;;;;20.30;60.44;101213.94;4995625;28;1089;-58
2021/09/28 04:18:10;;;;;;;;;;;;;;;20.33;60.74;101213.38;4995715;28;1132;-58
2021/09/28 04:20:39;;;;;;;;;;;;;;;20.43;60.74;101209.72;4995685;28;1431;-57
2021/09/28 04:23:05;;;;;;;;;;;;;;;20.45;60.73;101211.03;4999470;28;1480;-58
2021/09/28 04:25:30;;;;;;;;;;;;;;;20.60;60.40;101207.34;4996669;28;1517;-55
2021/09/28 04:27:56;;;;;;;;;;;;;;;20.29;58.97;101207.59;4995658;28;1439;-51
2021/09/28 04:30:21;;;;;;;;;;;;;;;19.81;56.71;101204.59;4996564;28;1922;-54
2021/09/28 04:32:46;;;;;;;;;;;;;;;19.12;54.02;101205.16;4996205;28;1442;-57
2021/09/28 04:35:12;;;;;;;;;;;;;;;18.69;51.47;101196.44;4996181;28;1232;-60
2021/09/28 04:37:37;;;;;;;;;;;;;;;18.41;49.06;101200.56;4995828;28;1335;-57
2021/09/28 04:40:03;;;;;;;;;;;;;;;18.17;49.10;101201.09;4996160;28;1490;-58
2021/09/28 04:42:28;;;;;;;;;;;;;;;18.47;53.43;101203.03;4996475;28;1642;-55
2021/09/28 04:44:54;;;;;;;;;;;;;;;18.84;55.60;101201.06;4995538;28;1425;-54
2021/09/28 04:47:19;;;;;;;;;;;;;;;19.23;57.27;101196.88;4994909;28;1360;-54
2021/09/28 04:49:45;;;;;;;;;;;;;;;19.34;58.90;101198.47;4996464;28;1910;-54
2021/09/28 04:52:10;;;;;;;;;;;;;;;19.59;59.65;101203.06;4995912;28;1514;-58
2021/09/28 04:54:36;;;;;;;;;;;;;;;19.83;59.93;101202.41;4996001;28;1684;-55
2021/09/28 04:57:01;;;;;;;;;;;;;;;19.92;60.24;101200.69;4996300;28;1445;-56
2021/09/28 04:59:26;;;;;;;;;;;;;;;20.15;60.21;101201.91;4995977;28;1660;-58
2021/09/28 05:01:52;;;;;;;;;;;;;;;20.28;60.40;101196.84;4995493;28;1573;-54
2021/09/28 05:04:17;;;;;;;;;;;;;;;20.40;60.14;101197.28;4996111;28;1485;-54
2021/09/28 05:06:43;;;;;;;;;;;;;;;20.32;60.93;101211.72;4996217;28;1402;-57
2021/09/28 05:09:08;;;;;;;;;;;;;;;20.43;60.83;101202.22;4995217;28;1911;-55
2021/09/28 05:11:33;;;;;;;;;;;;;;;20.58;60.50;101208.72;4992962;28;1582;-55
2021/09/28 05:14:00;;;;;;;;;;;;;;;20.66;60.25;101210.88;4995509;28;1394;-55
2021/09/28 05:16:26;;;;;;;;;;;;;;;20.31;60.20;101213.66;4995355;28;1319;-54
2021/09/28 05:18:51;;;;;;;;;;;;;;;19.78;57.98;101207.91;4995643;28;1696;-54
2021/09/28 05:21:17;;;;;;;;;;;;;;;19.37;54.73;101211.69;4995416;28;1492;-55
2021/09/28 05:23:46;;;;;;;;;;;;;;;18.89;52.17;101219.56;4993981;28;1303;-60
2021/09/28 05:26:12;;;;;;;;;;;;;;;18.44;49.99;101213.81;4995624;28;1526;-54
2021/09/28 05:28:37;;;;;;;;;;;;;;;18.35;50.48;101210.75;4995236;28;1979;-55
2021/09/28 05:31:03;;;;;;;;;;;;;;;18.69;53.25;101203.84;4995104;28;1445;-55
2021/09/28 05:33:28;;;;;;;;;;;;;;;18.99;56.05;101214.03;4995191;28;1428;-59
2021/09/28 05:35:55;;;;;;;;;;;;;;;19.34;57.32;101209.50;4995823;28;1676;-58
2021/09/28 05:38:21;;;;;;;;;;;;;;;19.36;59.17;101223.81;4996593;28;1785;-56
2021/09/28 05:40:46;;;;;;;;;;;;;;;19.65;59.68;101231.44;4995288;28;1383;-56
2021/09/28 05:43:11;;;;;;;;;;;;;;;19.73;60.61;101227.28;4995721;28;1507;-57
2021/09/28 05:45:37;;;;;;;;;;;;;;;19.90;60.71;101235.22;4976901;28;1761;-55
2021/09/28 05:48:02;;;;;;;;;;;;;;;20.15;60.48;101229.50;4995160;28;1165;-55
2021/09/28 05:50:28;;;;;;;;;;;;;;;20.26;60.45;101234.94;4994939;28;1950;-52
2021/09/28 05:52:55;;;;;;;;;;;;;;;20.17;61.15;101241.09;4994341;28;1713;-54
2021/09/28 05:55:21;;;;;;;;;;;;;;;20.27;61.20;101245.72;4995090;28;1420;-53
2021/09/28 05:57:46;;;;;;;;;;;;;;;20.48;60.65;101249.16;4994967;28;1574;-59
2021/09/28 06:00:15;;;;;;;;;;;;;;;20.58;60.36;101252.94;4994030;28;1342;-54
2021/09/28 06:02:40;;;;;;;;;;;;;;;20.65;60.42;101253.41;4995020;28;1666;-55
2021/09/28 06:05:06;;;;;;;;;;;;;;;20.56;60.58;101255.19;4995037;28;1568;-56
2021/09/28 06:07:31;;;;;;;;;;;;;;;20.15;58.58;101251.59;4995031;28;1262;-53
2021/09/28 06:09:57;;;;;;;;;;;;;;;19.63;56.05;101250.22;4996622;28;1939;-58
2021/09/28 06:12:23;;;;;;;;;;;;;;;18.96;53.89;101253.19;4994734;28;1454;-55
2021/09/28 06:14:48;;;;;;;;;;;;;;;18.92;51.56;101257.59;4994218;28;1322;-54
2021/09/28 06:17:13;;;;;;;;;;;;;;;18.49;50.65;101262.53;4998223;28;1637;-58
2021/09/28 06:19:39;;;;;;;;;;;;;;;18.18;48.85;101259.75;4995006;28;1503;-56
2021/09/28 06:22:05;;;;;;;;;;;;;;;18.08;48.96;101268.81;4994316;28;1496;-55
2021/09/28 06:24:32;;;;;;;;;;;;;;;18.35;52.07;101260.31;4995107;28;1462;-57
2021/09/28 06:26:58;;;;;;;;;;;;;;;18.76;55.13;101268.59;4994718;28;1517;-57
2021/09/28 06:29:23;;;;;;;;;;;;;;;19.03;57.19;101278.50;4999941;28;2310;-55
2021/09/28 06:31:49;;;;;;;;;;;;;;;19.21;58.55;101276.25;4994634;28;1462;-56
2021/09/28 06:34:14;;;;;;;;;;;;;;;19.28;59.73;101283.16;4994798;28;1483;-55
2021/09/28 06:36:39;;;;;;;;;;;;;;;19.61;59.86;101288.28;4997505;28;1488;-55
2021/09/28 06:39:05;;;;;;;;;;;;;;;19.74;60.43;101281.31;4997640;28;1496;-56
2021/09/28 06:41:30;;;;;;;;;;;;;;;19.80;61.17;101278.28;4994919;28;1584;-54
2021/09/28 06:43:59;;;;;;;;;;;;;;;19.97;60.93;101277.94;4977341;28;1545;-55
2021/09/28 06:46:25;;;;;;;;;;;;;;;20.06;61.41;101274.56;4994724;28;1531;-58
2021/09/28 06:48:50;;;;;;;;;;;;;;;20.05;61.73;101278.44;4996269;28;2001;-56
2021/09/28 06:51:15;;;;;;;;;;;;;;;20.39;60.93;101272.97;4994351;28;1255;-54
2021/09/28 06:53:41;;;;;;;;;;;;;;;20.40;61.29;101280.16;4994269;28;1055;-59
2021/09/28 06:56:07;;;;;;;;;;;;;;;20.48;61.38;101276.78;4994473;28;1377;-57
2021/09/28 06:58:32;;;;;;;;;;;;;;;20.45;61.41;101280.09;4994440;28;1524;-54
2021/09/28 07:00:58;;;;;;;;;;;;;;;20.29;60.57;101275.81;4998022;28;1379;-55
2021/09/28 07:03:23;;;;;;;;;;;;;;;19.87;57.93;101272.47;4995077;28;1398;-58
2021/09/28 07:05:49;;;;;;;;;;;;;;;19.40;55.15;101277.31;4994651;28;1520;-57
2021/09/28 07:08:15;;;;;;;;;;;;;;;18.75;52.41;101275.19;4993816;28;1108;-56
2021/09/28 07:10:41;;;;;;;;;;;;;;;18.79;49.67;101281.81;4995450;28;1959;-55
2021/09/28 07:13:06;;;;;;;;;;;;;;;18.15;48.88;101276.81;4997403;28;1060;-56
2021/09/28 07:15:32;;;;;;;;;;;;;;;18.33;51.04;101284.53;4998592;28;1227;-57
2021/09/28 07:17:57;;;;;;;;;;;;;;;18.80;53.94;101282.63;4998182;28;1540;-54
2021/09/28 07:20:23;;;;;;;;;;;;;;;19.02;56.67;101281.56;4998594;28;1596;-57
2021/09/28 07:22:48;;;;;;;;;;;;;;;19.22;58.17;101277.91;4997582;28;1075;-54
2021/09/28 07:25:14;;;;;;;;;;;;;;;19.33;59.59;101282.31;4997972;28;1587;-54
2021/09/28 07:27:39;;;;;;;;;;;;;;;19.66;59.63;101282.75;4997458;28;1146;-55
2021/09/28 07:30:05;;;;;;;;;;;;;;;19.74;60.24;101279.41;4998165;28;1906;-55
2021/09/28 07:32:30;;;;;;;;;;;;;;;19.87;60.63;101268.91;4997595;28;1735;-56
2021/09/28 07:34:56;;;;;;;;;;;;;;;20.03;60.73;101273.22;4997682;28;1568;-59
2021/09/28 07:37:26;;;;;;;;;;;;;;;20.06;61.11;101271.81;4996465;28;1527;-55
2021/09/28 07:39:52;;;;;;;;;;;;;;;20.21;61.09;101273.66;4995368;28;1401;-53
2021/09/28 07:42:17;;;;;;;;;;;;;;;20.35;60.78;101283.75;5002347;28;1443;-55
2021/09/28 07:44:42;;;;;;;;;;;;;;;20.54;60.68;101287.78;4997500;28;1443;-57
2021/09/28 07:47:08;;;;;;;;;;;;;;;20.47;61.13;101285.38;4999245;28;1793;-57
2021/09/28 07:49:33;;;;;;;;;;;;;;;20.45;60.95;101287.56;4997314;28;1914;-54
2021/09/28 07:52:01;;;;;;;;;;;;;;;20.14;58.98;101294.13;4997070;28;1553;-57
2021/09/28 07:54:26;;;;;;;;;;;;;;;19.58;56.69;101302.66;4997281;28;1631;-54
2021/09/28 07:56:51;;;;;;;;;;;;;;;19.01;53.86;101300.00;4997420;28;1680;-54
2021/09/28 07:59:17;;;;;;;;;;;;;;;18.66;50.82;101293.38;5002834;28;1725;-55
2021/09/28 08:01:43;;;;;;;;;;;;;;;18.26;49.69;101295.81;4995496;28;1698;-52
2021/09/28 08:04:08;;;;;;;;;;;;;;;18.39;50.99;101286.19;5004209;28;1215;-55
2021/09/28 08:06:34;;;;;;;;;;;;;;;18.92;54.30;101293.41;4996375;28;1666;-54
2021/09/28 08:08:59;;;;;;;;;;;;;;;19.18;56.37;101290.59;4997230;28;1910;-55
2021/09/28 08:11:25;;;;;;;;;;;;;;;19.31;58.29;101281.78;4997253;28;1554;-53
2021/09/28 08:13:50;;;;;;;;;;;;;;;19.49;59.49;101289.44;4997416;28;1799;-56
2021/09/28 08:16:15;;;;;;;;;;;;;;;19.61;60.12;101283.56;4997347;28;1549;-53
2021/09/28 08:18:41;;;;;;;;;;;;;;;19.70;60.61;101292.13;4996986;28;1688;-55
2021/09/28 08:21:06;;;;;;;;;;;;;;;19.90;60.72;101287.66;4997493;28;1541;-54
2021/09/28 08:23:32;;;;;;;;;;;;;;;20.10;60.73;101287.50;4996853;28;1567;-53
2021/09/28 08:31:07;;;;;;;;;;;;;;;20.41;60.84;101286.50;4991787;28;1148;-57
2021/09/28 08:33:33;;;;;;;;;;;;;;;20.68;60.26;101288.81;4997446;28;1448;-56
2021/09/28 08:35:58;;;;;;;;;;;;;;;20.48;60.64;101289.75;4996131;28;1517;-55
2021/09/28 08:38:24;;;;;;;;;;;;;;;20.24;59.12;101281.38;4995950;28;1338;-53
2021/09/28 08:40:49;;;;;;;;;;;;;;;19.71;56.72;101279.13;4995960;28;1682;-56
2021/09/28 08:43:15;;;;;;;;;;;;;;;19.26;53.61;101273.50;4997541;28;1554;-56
2021/09/28 08:45:43;;;;;;;;;;;;;;;18.77;51.59;101272.97;4996429;28;1570;-55
2021/09/28 08:48:15;;;;;;;;;;;;;;;18.39;49.32;101283.44;4996327;28;1239;-55
2021/09/28 08:50:43;;;;;;;;;;;;;;;18.28;49.46;101270.75;4995040;28;1923;-54
2021/09/28 08:53:09;;;;;;;;;;;;;;;18.59;52.52;101273.53;4996705;28;1347;-58
2021/09/28 08:55:35;;;;;;;;;;;;;;;18.89;55.47;101278.25;4996329;28;1616;-58
2021/09/28 08:58:12;;;;;;;;;;;;;;;19.07;57.76;101276.84;4995885;28;1608;-55
2021/09/28 09:00:38;;;;;;;;;;;;;;;19.37;59.00;101279.81;4991011;28;1232;-55
2021/09/28 09:03:03;;;;;;;;;;;;;;;19.52;59.64;101288.03;4995324;28;1310;-52
2021/09/28 09:05:29;;;;;;;;;;;;;;;19.65;60.19;101286.63;4999005;28;1339;-54
2021/09/28 09:07:58;;;;;;;;;;;;;;;19.73;60.74;101288.78;4986558;28;1417;-54
2021/09/28 09:10:32;;;;;;;;;;;;;;;20.00;60.61;101284.81;4995940;28;1902;-51
2021/09/28 09:12:57;;;;;;;;;;;;;;;20.01;61.01;101272.69;4979701;28;1527;-54
2021/09/28 09:15:35;;;;;;;;;;;;;;;20.40;60.20;101274.63;4995424;28;1621;-58
2021/09/28 09:18:02;;;;;;;;;;;;;;;20.43;60.38;101273.25;4995801;28;1517;-55
2021/09/28 09:20:37;;;;;;;;;;;;;;;20.53;60.25;101278.69;4995306;28;1654;-56
2021/09/28 09:23:25;;;;;;;;;;;;;;;20.46;60.70;101279.00;4997997;28;1388;-53
2021/09/28 09:26:17;;;;;;;;;;;;;;;20.60;60.15;101283.88;4995423;28;1312;-55
2021/09/28 09:28:52;;;;;;;;;;;;;;;20.20;58.54;101292.16;4961959;28;1922;-52
2021/09/28 09:31:38;;;;;;;;;;;;;;;19.70;55.97;101277.47;4995200;28;1449;-54
2021/09/28 09:34:08;;;;;;;;;;;;;;;19.32;52.43;101286.16;4997396;28;1492;-54
2021/09/28 09:36:33;;;;;;;;;;;;;;;18.68;50.95;101296.69;4994894;28;1187;-53
2021/09/28 09:38:59;;;;;;;;;;;;;;;18.40;49.87;101298.06;4995497;28;1103;-56
2021/09/28 09:41:27;;;;;;;;;;;;;;;18.53;51.67;101296.69;4993915;28;1569;-55
2021/09/28 09:44:02;;;;;;;;;;;;;;;18.96;54.60;101300.03;4994422;28;1420;-56
2021/09/28 09:46:37;;;;;;;;;;;;;;;19.27;56.79;101302.72;4996516;28;1497;-56
2021/09/28 09:49:04;;;;;;;;;;;;;;;19.47;58.47;101302.69;4991008;28;1930;-53
2021/09/28 09:51:30;;;;;;;;;;;;;;;19.65;59.28;101303.16;4994753;28;1480;-56
2021/09/28 09:53:58;;;;;;;;;;;;;;;19.62;60.49;101303.75;4976123;28;2088;-55
2021/09/28 09:56:39;;;;;;;;;;;;;;;19.92;60.21;101304.72;4976878;28;1682;-56
2021/09/28 09:59:04;;;;;;;;;;;;;;;20.06;60.37;101297.47;4993256;28;1525;-53
2021/09/28 10:01:30;;;;;;;;;;;;;;;20.13;60.25;101299.94;4997229;28;1367;-51
2021/09/28 10:03:55;;;;;;;;;;;;;;;20.26;60.33;101306.75;4994185;28;1559;-56
2021/09/28 10:06:20;;;;;;;;;;;;;;;20.30;60.71;101307.81;4997380;28;1705;-53
2021/09/28 10:08:47;;;;;;;;;;;;;;;20.37;60.23;101313.03;4994407;28;1910;-55
2021/09/28 10:11:13;;;;;;;;;;;;;;;19.99;58.72;101313.53;4977005;28;1284;-60
2021/09/28 10:13:49;;;;;;;;;;;;;;;19.52;56.20;101314.78;4994528;28;2019;-55
2021/09/28 10:16:27;;;;;;;;;;;;;;;18.97;52.96;101316.28;4991587;28;1560;-52
2021/09/28 10:18:52;;;;;;;;;;;;;;;18.51;50.80;101313.47;4993685;28;1622;-58
2021/09/28 10:21:36;;;;;;;;;;;;;;;18.27;50.19;101313.16;4992926;28;1754;-60
2021/09/28 10:24:22;;;;;;;;;;;;;;;18.47;51.65;101317.88;4992994;28;2347;-57
2021/09/28 10:27:07;;;;;;;;;;;;;;;18.93;55.44;101314.38;4978788;28;1676;-59
2021/09/28 10:29:51;;;;;;;;;;;;;;;19.23;57.68;101318.19;4995030;28;1991;-58
2021/09/28 10:32:26;;;;;;;;;;;;;;;19.36;59.13;101312.06;4991238;28;1639;-54
2021/09/28 10:35:09;;;;;;;;;;;;;;;19.63;59.75;101319.19;4985357;28;1685;-61
2021/09/28 10:37:53;;;;;;;;;;;;;;;19.67;60.58;101312.81;4993374;28;1568;-56
2021/09/28 10:40:19;;;;;;;;;;;;;;;20.04;60.00;101305.22;4993377;28;1362;-58
2021/09/28 10:42:54;;;;;;;;;;;;;;;20.08;60.61;101309.06;4994208;28;1272;-58
2021/09/28 10:45:29;;;;;;;;;;;;;;;20.12;60.74;101315.69;4994653;28;1344;-58
2021/09/28 10:48:06;;;;;;;;;;;;;;;20.22;60.97;101322.25;4997903;28;1271;-60
2021/09/28 10:50:36;;;;;;;;;;;;;;;20.44;60.62;101310.78;4994846;28;1977;-59
2021/09/28 10:53:01;;;;;;;;;;;;;;;20.47;60.59;101329.56;4997263;28;1730;-59
2021/09/28 10:55:39;;;;;;;;;;;;;;;20.37;60.76;101329.59;4998181;28;1257;-60
2021/09/28 10:58:15;;;;;;;;;;;;;;;19.99;59.37;101325.41;4998303;28;1280;-58
2021/09/28 11:00:40;;;;;;;;;;;;;;;19.59;56.40;101326.38;4998333;28;1622;-47
2021/09/28 11:03:06;;;;;;;;;;;;;;;19.11;53.55;101324.81;4998411;28;793;-55
2021/09/28 11:05:41;;;;;;;;;;;;;;;18.75;50.94;101324.78;4997197;28;1888;-58
2021/09/28 11:08:16;;;;;;;;;;;;;;;18.34;50.11;101319.25;4984372;28;1564;-52
2021/09/28 11:10:42;;;;;;;;;;;;;;;18.42;50.35;101326.94;4980046;28;1918;-58
2021/09/28 11:13:10;;;;;;;;;;;;;;;18.73;54.57;101331.66;4980546;28;1202;-58
2021/09/28 11:15:36;;;;;;;;;;;;;;;19.02;56.77;101331.97;4998816;28;844;-54
2021/09/28 11:18:07;;;;;;;;;;;;;;;19.29;58.05;101334.44;4994820;28;1212;-56
2021/09/28 11:20:33;;;;;;;;;;;;;;;19.60;59.05;101334.38;4989258;28;1628;-59
2021/09/28 11:23:02;;;;;;;;;;;;;;;19.63;60.05;101328.28;4988207;28;1266;-58
2021/09/28 11:25:27;;;;;;;;;;;;;;;19.77;60.70;101325.75;4980868;28;1284;-62
2021/09/28 11:28:19;;;;;;;;;;;;;;;19.85;60.85;101331.81;4979551;28;2181;-60
2021/09/28 11:30:53;;;;;;;;;;;;;;;20.03;60.87;101319.31;4994165;28;1933;-63
2021/09/28 11:33:19;;;;;;;;;;;;;;;20.31;60.37;101331.59;4997235;28;1400;-62
2021/09/28 11:36:03;;;;;;;;;;;;;;;20.16;61.33;101324.19;4997684;28;1513;-61
2021/09/28 11:38:30;;;;;;;;;;;;;;;20.39;60.55;101325.47;4997230;28;1202;-62
2021/09/28 11:40:58;;;;;;;;;;;;;;;20.17;60.14;101328.63;4997423;28;1523;-60
2021/09/28 11:43:25;;;;;;;;;;;;;;;19.62;57.94;101329.38;4997593;28;1450;-58
2021/09/28 11:46:16;;;;;;;;;;;;;;;19.12;55.62;101323.69;4997272;28;1514;-59
2021/09/28 11:48:54;;;;;;;;;;;;;;;18.68;52.44;101328.91;4993747;28;2009;-64
2021/09/28 11:51:24;;;;;;;;;;;;;;;18.23;50.37;101323.03;4999547;28;1085;-58
2021/09/28 11:53:49;;;;;;;;;;;;;;;18.11;49.74;101331.56;5017254;28;816;-59
2021/09/28 11:56:20;;;;;;;;;;;;;;;18.49;53.05;101337.69;4985897;28;1871;-58
2021/09/28 11:58:49;;;;;;;;;;;;;;;18.93;55.60;101337.22;4983467;28;1393;-59
2021/09/28 12:01:15;;;;;;;;;;;;;;;19.18;57.72;101334.72;4971563;28;1527;-58
2021/09/28 12:04:01;;;;;;;;;;;;;;;19.44;58.57;101341.03;4986155;28;1242;-58
2021/09/28 12:06:46;;;;;;;;;;;;;;;19.52;59.82;101336.84;4991990;28;1690;-58
2021/09/28 12:09:11;;;;;;;;;;;;;;;19.70;60.54;101344.53;4989366;28;1985;-58
2021/09/28 12:11:55;;;;;;;;;;;;;;;19.92;60.38;101337.84;4995823;28;1318;-60
2021/09/28 12:14:28;;;;;;;;;;;;;;;20.11;60.58;101332.53;4990848;28;1338;-58
2021/09/28 12:16:54;;;;;;;;;;;;;;;20.20;60.60;101330.00;4995192;28;1388;-55
2021/09/28 12:19:19;;;;;;;;;;;;;;;20.43;60.14;101334.00;4995350;28;1581;-60
2021/09/28 12:21:44;;;;;;;;;;;;;;;20.38;60.52;101337.59;4995648;28;1227;-57
2021/09/28 12:24:14;;;;;;;;;;;;;;;20.43;60.66;101336.78;4994311;28;1717;-57
2021/09/28 12:26:39;;;;;;;;;;;;;;;20.42;60.79;101344.22;4996796;28;1240;-61
2021/09/28 12:29:15;;;;;;;;;;;;;;;20.44;60.92;101333.72;4996390;28;1906;-59
2021/09/28 12:31:40;;;;;;;;;;;;;;;20.41;59.92;101334.31;4996413;28;1240;-59
2021/09/28 12:34:06;;;;;;;;;;;;;;;20.09;57.86;101330.06;4996266;28;1526;-60
2021/09/28 12:36:31;;;;;;;;;;;;;;;19.53;55.24;101338.50;4996402;28;1521;-58
2021/09/28 12:39:16;;;;;;;;;;;;;;;18.91;52.83;101336.66;4996372;28;1886;-58
2021/09/28 12:42:14;;;;;;;;;;;;;;;18.42;50.96;101342.66;4995472;28;2069;-59
2021/09/28 12:44:39;;;;;;;;;;;;;;;18.21;50.13;101333.50;4963636;28;1893;-61
2021/09/28 12:47:24;;;;;;;;;;;;;;;18.50;53.07;101335.78;4995726;28;1486;-59
2021/09/28 12:49:49;;;;;;;;;;;;;;;18.99;55.82;101335.28;4996126;28;1985;-59
2021/09/28 12:52:15;;;;;;;;;;;;;;;19.22;57.80;101339.38;4999546;28;1344;-58
2021/09/28 12:54:40;;;;;;;;;;;;;;;19.48;58.83;101334.66;4995460;28;1878;-59
2021/09/28 12:57:06;;;;;;;;;;;;;;;19.83;58.89;101332.91;4996710;28;758;-58
2021/09/28 12:59:31;;;;;;;;;;;;;;;19.92;59.72;101329.56;4996142;28;1418;-56